Cortez, CO

9:27 PM MDT on September 18, 2014 (GMT -0600)
Kelly Place B&B, McElmo Canyon | Change Station
CLOSE
Current Station
Personal Weather Station
Location: Cortez, CO
Elevation: 5522 ft
Nearby Weather Stations

Elev 5522 ft 37.34 °N, 108.79 °W | Updated 7 minutes ago

Clear
Clear
67.8 °F
Feels Like 67.8 °F
N
7.8
Wind Variable Wind from East
Gusts 8.3 mph

Today
High -- | Low -- °F
--% Chance of Precip.
Yesterday
High -- | Low -- °F
Precip. -- in
6:59 AM 7:17 PM
Waning Crescent, 22% visible
Pressure 29.86 in
Visibility 10.0 miles
Clouds Clear
Dew Point 43 °F
Humidity 40%
Rainfall 0.00 in
Snow Depth 0 in , 0 in , 10 in
UV 0 out of 12
Pollen 6.30 out of 12
Air Quality Not available.
Flu Activity Not available.
METAR KCEZ 190253Z AUTO 06006KT 10SM CLR 16/08 A3003 RMK AO2 SLP109 T01560078 53011

More Conditions Fewer Conditions

Pressure 29.86 in
Visibility 10.0 miles
Clouds Clear
Dew Point 43 °F
Humidity 40%
Rainfall 0.00 in
Snow Depth 0 in , 0 in , 10 in
UV 0 out of 12
Pollen 6.30 out of 12
Air Quality Not available.
Flu Activity Not available.
METAR KCEZ 190253Z AUTO 06006KT 10SM CLR 16/08 A3003 RMK AO2 SLP109 T01560078 53011

More Conditions Fewer Conditions

10-Day Weather Forecast

Almanac

Astronomy

Sep. 18, 2014 Rise Set
Actual Time 6:59 AM MDT 7:17 PM MDT
Civil Twilight 6:33 AM MDT 7:43 PM MDT
Nautical Twilight 6:02 AM MDT 8:14 PM MDT
Astronomical Twilight 5:31 AM MDT 8:45 PM MDT
Moon 1:59 AM MDT (9/18) 4:06 PM MDT (9/18)
Length of Visible Light 13h 10m
Length of Day
12h 18m
Tomorrow will be 2m 22s shorter.
Waning Crescent, 22% of the Moon is Illuminated
Today
Waning Crescent
Sep 24
New
Oct 1
First Quarter
Oct 8
Full
Oct 15
Last Quarter

Today's Extremes

State Highs State Lows

Community

WunderPhotos

Upload Photos

1,754,551 photos uploaded!

Nearby

Snow Depth

Station Depth Elevation
Copper Mountain 0 in 10500 ft
Overland Reservoir 0 in 9880 ft
Mccoy Park 10 in 9480 ft
Upper San Juan 0 in 10130 ft
Columbus Basin 0 in 10785 ft

Earthquake Activity

City Distance Mag. Time & Date
No recent earthquake activity has been reported nearby.
Minimum magnitude displayed is 2.5.

Coastal Water Temperatures

Place Temperature
No Stations Reporting

Nearby Weather Stations